Time;durP1;ratioP1;P1;durP2;ratioP2;P2;SDS_P1;SDS_P2;PMS_P1;PMS_P2;Temp;Humidity;BMP_temperature;BMP_pressure;BME280_temperature;BME280_humidity;BME280_pressure;Samples;Min_cycle;Max_cycle;Signal;HPM_P1;HPM_P2
2022/08/10 00:00:50;;;;;;;0.80;0.52;;;22.50;83.40;;;;;;4065048;29;20039;-64
2022/08/10 00:02:56;;;;;;;0.47;0.43;;;22.60;83.20;;;;;;4047789;29;20661;-65
2022/08/10 00:04:56;;;;;;;1.08;0.70;;;22.50;83.30;;;;;;4065482;29;20091;-65
2022/08/10 00:06:57;;;;;;;0.98;0.60;;;22.50;83.50;;;;;;4065272;29;20044;-65
2022/08/10 00:08:57;;;;;;;0.60;0.55;;;22.50;83.40;;;;;;4059624;29;20034;-65
2022/08/10 00:10:58;;;;;;;1.13;0.75;;;22.50;84.00;;;;;;4065025;29;20668;-65
2022/08/10 00:12:59;;;;;;;1.48;0.77;;;22.50;84.30;;;;;;4064887;29;20043;-64
2022/08/10 00:14:59;;;;;;;1.45;0.70;;;22.50;84.50;;;;;;4065784;29;20373;-65
2022/08/10 00:17:00;;;;;;;0.82;0.73;;;22.50;84.70;;;;;;4065104;29;20039;-64
2022/08/10 00:19:00;;;;;;;1.15;1.00;;;22.50;84.50;;;;;;4065904;29;20372;-65
2022/08/10 00:21:03;;;;;;;2.00;1.17;;;22.50;85.30;;;;;;4065029;29;20032;-65
2022/08/10 00:23:03;;;;;;;1.85;0.85;;;22.50;84.60;;;;;;4064823;29;20032;-65
2022/08/10 00:25:05;;;;;;;1.05;0.70;;;22.50;84.80;;;;;;4065481;29;20039;-65
2022/08/10 00:27:05;;;;;;;0.70;0.70;;;22.50;84.80;;;;;;4065365;29;20451;-65
2022/08/10 00:29:06;;;;;;;2.22;0.90;;;22.50;85.40;;;;;;4066019;29;20036;-65
2022/08/10 00:31:07;;;;;;;1.48;1.00;;;22.50;85.00;;;;;;4064364;29;20047;-65
2022/08/10 00:33:07;;;;;;;1.55;0.98;;;22.50;85.20;;;;;;4064764;29;20103;-65
2022/08/10 00:35:08;;;;;;;1.02;0.80;;;22.50;85.20;;;;;;4065331;29;20067;-65
2022/08/10 00:37:09;;;;;;;1.00;0.80;;;22.50;85.70;;;;;;4065616;29;20032;-64
2022/08/10 00:39:09;;;;;;;1.63;0.80;;;22.40;85.90;;;;;;4065512;29;20063;-65
2022/08/10 00:41:10;;;;;;;1.48;0.85;;;22.40;85.80;;;;;;4064573;29;20036;-64
2022/08/10 00:43:10;;;;;;;1.73;0.60;;;22.50;86.10;;;;;;4064306;29;20056;-64
2022/08/10 00:45:11;;;;;;;0.98;0.93;;;22.50;86.10;;;;;;4065023;29;20031;-66
2022/08/10 00:47:12;;;;;;;1.05;0.80;;;22.40;86.50;;;;;;4071991;29;20038;-64
2022/08/10 00:49:13;;;;;;;1.35;1.00;;;22.50;87.80;;;;;;4073079;29;20036;-65
2022/08/10 00:51:14;;;;;;;1.48;0.90;;;22.40;86.80;;;;;;4070909;29;20123;-64
2022/08/10 00:53:15;;;;;;;1.52;0.88;;;22.40;87.70;;;;;;4065202;29;20044;-64
2022/08/10 00:55:18;;;;;;;0.80;0.80;;;22.50;87.50;;;;;;4063423;29;20040;-64
2022/08/10 00:57:19;;;;;;;1.58;1.00;;;22.40;87.30;;;;;;4065173;29;20040;-65
2022/08/10 00:59:20;;;;;;;3.53;1.15;;;22.40;87.70;;;;;;4064201;29;20058;-64
2022/08/10 01:01:21;;;;;;;1.33;0.77;;;22.40;87.40;;;;;;4067942;29;20105;-65
2022/08/10 01:03:21;;;;;;;1.00;0.90;;;22.40;88.70;;;;;;4068979;29;20050;-64
2022/08/10 01:05:22;;;;;;;1.35;0.85;;;22.40;87.50;;;;;;4071878;29;20139;-64
2022/08/10 01:07:44;;;;;;;1.30;1.10;;;22.40;87.50;;;;;;4074175;29;20032;-65
2022/08/10 01:10:11;;;;;;;1.17;1.00;;;22.40;87.90;;;;;;4069510;29;20043;-65
2022/08/10 01:12:18;;;;;;;1.73;0.77;;;22.30;88.30;;;;;;4070330;29;20040;-64
2022/08/10 01:14:45;;;;;;;1.85;1.05;;;22.20;88.30;;;;;;4067501;29;20040;-64
2022/08/10 01:17:04;;;;;;;0.95;0.85;;;22.20;88.50;;;;;;4062016;29;20040;-65
2022/08/10 01:19:36;;;;;;;1.70;1.10;;;22.10;88.70;;;;;;4066649;29;20044;-65
2022/08/10 01:21:45;;;;;;;0.88;0.88;;;22.00;90.00;;;;;;4064890;29;20028;-64
2022/08/10 01:23:57;;;;;;;1.63;0.93;;;22.00;89.60;;;;;;4068363;29;20039;-64
2022/08/10 01:26:22;;;;;;;1.15;0.98;;;21.90;89.80;;;;;;4069185;29;20038;-65
2022/08/10 01:28:41;;;;;;;1.30;1.10;;;21.80;90.40;;;;;;4069749;29;20040;-64
2022/08/10 01:30:43;;;;;;;1.08;0.98;;;21.70;90.30;;;;;;4054890;29;20028;-64
2022/08/10 01:33:08;;;;;;;1.80;0.90;;;21.70;90.40;;;;;;4053267;29;20492;-64
2022/08/10 01:35:14;;;;;;;0.90;0.90;;;21.60;90.60;;;;;;4052568;29;20128;-66
2022/08/10 01:37:19;;;;;;;1.10;1.00;;;21.50;90.70;;;;;;4059696;29;20024;-64
2022/08/10 01:39:27;;;;;;;1.33;1.00;;;21.50;90.80;;;;;;4056392;29;20127;-64
2022/08/10 01:41:35;;;;;;;1.67;1.08;;;21.50;90.80;;;;;;4053936;29;20119;-65
2022/08/10 01:43:45;;;;;;;1.55;1.10;;;21.50;91.00;;;;;;4051864;29;20040;-64
2022/08/10 01:45:52;;;;;;;2.42;1.20;;;21.50;91.10;;;;;;4064833;29;20395;-64
2022/08/10 01:50:19;;;;;;;1.17;1.05;;;21.50;91.30;;;;;;4059575;29;20107;-64
2022/08/10 01:52:22;;;;;;;1.50;1.30;;;21.50;91.30;;;;;;4051394;29;20036;-64
2022/08/10 01:54:24;;;;;;;1.38;1.00;;;21.60;91.40;;;;;;4070695;29;20047;-64
2022/08/10 01:56:29;;;;;;;1.05;0.95;;;21.60;91.50;;;;;;4054754;29;20047;-64
2022/08/10 01:58:32;;;;;;;1.00;1.00;;;21.60;91.30;;;;;;4056822;29;20032;-64
2022/08/10 02:00:37;;;;;;;2.55;1.38;;;21.50;91.30;;;;;;4056316;29;20123;-64
2022/08/10 02:02:41;;;;;;;1.90;1.38;;;21.40;91.50;;;;;;4051790;29;20028;-64
2022/08/10 02:04:47;;;;;;;1.15;1.05;;;21.40;91.70;;;;;;4068260;29;20082;-64
2022/08/10 02:06:51;;;;;;;3.55;1.10;;;21.30;91.80;;;;;;4051915;29;20040;-64
2022/08/10 02:08:53;;;;;;;1.95;1.17;;;21.30;91.90;;;;;;4056182;29;20036;-64
2022/08/10 02:10:55;;;;;;;2.58;1.25;;;21.20;92.10;;;;;;4057891;29;20550;-64
2022/08/10 02:12:57;;;;;;;4.47;1.42;;;21.10;92.30;;;;;;4051172;29;20036;-66
2022/08/10 02:15:01;;;;;;;1.73;1.20;;;21.10;92.50;;;;;;4059668;29;20080;-65
2022/08/10 02:17:05;;;;;;;1.90;1.15;;;21.00;92.70;;;;;;4053409;29;20040;-65
2022/08/10 02:19:08;;;;;;;1.67;1.40;;;20.90;92.90;;;;;;4056984;29;20049;-64
2022/08/10 02:21:11;;;;;;;1.77;1.13;;;20.90;93.00;;;;;;4053953;29;20045;-65
2022/08/10 02:23:19;;;;;;;1.73;1.27;;;20.90;93.10;;;;;;4049276;29;20032;-64
2022/08/10 02:25:21;;;;;;;1.42;1.15;;;20.90;93.20;;;;;;4048202;29;20100;-64
2022/08/10 02:27:23;;;;;;;2.15;1.50;;;20.90;93.30;;;;;;4058115;29;20440;-64
2022/08/10 02:29:26;;;;;;;2.25;1.10;;;21.00;93.30;;;;;;4058945;29;20047;-64
2022/08/10 02:31:28;;;;;;;2.42;1.25;;;21.00;93.40;;;;;;4060396;29;20044;-65
2022/08/10 02:33:31;;;;;;;0.98;0.95;;;21.10;93.50;;;;;;4053252;29;20420;-64
2022/08/10 02:35:33;;;;;;;1.50;1.10;;;21.00;93.40;;;;;;4055265;29;20044;-64
2022/08/10 02:37:37;;;;;;;2.72;1.23;;;21.10;93.40;;;;;;4056094;29;20336;-65
2022/08/10 02:39:38;;;;;;;2.60;1.13;;;21.00;93.30;;;;;;4054293;29;20048;-64
2022/08/10 02:42:00;;;;;;;2.08;1.40;;;21.10;93.60;;;;;;4051776;29;20032;-64
2022/08/10 02:44:06;;;;;;;1.37;1.27;;;21.00;93.60;;;;;;4050852;29;20510;-64
2022/08/10 02:46:12;;;;;;;1.55;1.20;;;21.00;93.50;;;;;;4067516;29;20043;-66
2022/08/10 02:48:26;;;;;;;2.72;1.60;;;21.00;93.60;;;;;;4069993;29;20092;-64
2022/08/10 02:50:32;;;;;;;1.55;1.45;;;20.90;93.90;;;;;;4054572;29;20057;-64
2022/08/10 02:52:46;;;;;;;2.72;1.35;;;21.00;94.60;;;;;;4051280;29;20041;-64
2022/08/10 02:55:00;;;;;;;1.58;1.30;;;20.90;94.20;;;;;;4068894;29;20487;-64
2022/08/10 02:57:19;;;;;;;2.22;1.40;;;20.90;94.20;;;;;;4068343;29;20035;-64
2022/08/10 02:59:30;;;;;;;2.15;1.50;;;20.80;94.30;;;;;;4071426;29;20563;-64
2022/08/10 03:01:35;;;;;;;1.50;1.40;;;20.80;94.50;;;;;;4067572;29;20032;-64
2022/08/10 03:03:59;;;;;;;2.17;1.50;;;20.70;94.60;;;;;;4069050;29;20028;-64
2022/08/10 03:06:05;;;;;;;2.00;1.27;;;20.70;94.80;;;;;;4068335;29;20031;-65
2022/08/10 03:08:09;;;;;;;2.08;1.50;;;20.60;95.20;;;;;;4071433;29;20051;-64
2022/08/10 03:10:17;;;;;;;2.42;1.40;;;20.60;95.00;;;;;;4068957;29;20087;-64
2022/08/10 03:12:19;;;;;;;1.52;1.23;;;20.60;95.00;;;;;;4063944;29;20063;-64
2022/08/10 03:14:21;;;;;;;1.87;1.23;;;20.60;95.30;;;;;;4069146;29;20055;-64
2022/08/10 03:16:23;;;;;;;3.00;1.35;;;20.60;95.30;;;;;;4070520;29;20133;-65
2022/08/10 03:18:24;;;;;;;1.65;1.20;;;20.50;95.40;;;;;;4071272;29;20040;-65
2022/08/10 03:20:32;;;;;;;2.88;1.58;;;20.50;95.60;;;;;;4070617;29;20040;-64
2022/08/10 03:22:34;;;;;;;2.00;1.50;;;20.40;95.80;;;;;;4050370;29;20515;-64
2022/08/10 03:24:36;;;;;;;4.33;1.73;;;20.20;96.20;;;;;;4065907;29;20090;-64
2022/08/10 03:26:37;;;;;;;;;;;20.10;96.60;;;;;;4065396;29;20958;-64
2022/08/10 03:28:39;;;;;;;3.70;1.75;;;20.00;96.90;;;;;;4072945;29;19917;-63
2022/08/10 03:30:40;;;;;;;3.63;1.40;;;19.80;97.50;;;;;;4065153;29;20040;-64
2022/08/10 03:32:43;;;;;;;2.35;1.50;;;19.80;98.00;;;;;;4062192;29;20119;-64
2022/08/10 03:34:44;;;;;;;3.08;1.65;;;19.70;98.30;;;;;;4063795;29;20032;-64
2022/08/10 03:36:45;;;;;;;2.83;1.70;;;19.60;98.70;;;;;;4062880;29;20067;-64
2022/08/10 03:38:50;;;;;;;3.85;1.70;;;19.60;99.60;;;;;;4064264;29;20407;-64
2022/08/10 03:40:53;;;;;;;1.80;1.30;;;19.60;99.90;;;;;;4065684;29;20044;-64
2022/08/10 03:42:56;;;;;;;3.63;1.73;;;19.50;99.90;;;;;;4065170;29;20063;-64
2022/08/10 03:44:57;;;;;;;1.55;1.45;;;19.50;99.90;;;;;;4066325;29;20068;-64
2022/08/10 03:47:00;;;;;;;4.50;1.80;;;19.40;99.90;;;;;;4065412;29;20044;-64
2022/08/10 03:49:04;;;;;;;2.92;1.73;;;19.40;99.90;;;;;;4066429;29;20047;-64
2022/08/10 03:51:06;;;;;;;2.28;1.88;;;19.30;99.90;;;;;;4063530;29;20512;-64
2022/08/10 03:53:07;;;;;;;1.90;1.70;;;19.40;99.90;;;;;;4065135;29;20115;-65
2022/08/10 03:55:10;;;;;;;2.90;1.77;;;19.40;99.90;;;;;;4065910;29;20484;-64
2022/08/10 03:57:11;;;;;;;1.80;1.67;;;19.40;99.90;;;;;;4066285;29;20084;-64
2022/08/10 03:59:14;;;;;;;3.78;1.90;;;19.40;99.90;;;;;;4066361;29;20399;-64
2022/08/10 04:01:14;;;;;;;;;;;19.50;99.90;;;;;;4063844;29;20132;-64
2022/08/10 04:03:15;;;;;;;2.55;1.80;;;19.60;99.90;;;;;;4069407;29;19962;-64
2022/08/10 04:05:16;;;;;;;1.88;1.75;;;19.50;99.90;;;;;;4069074;29;20035;-63
2022/08/10 04:07:17;;;;;;;3.30;2.20;;;19.50;99.90;;;;;;4064223;29;20062;-64
2022/08/10 04:09:18;;;;;;;3.45;2.00;;;19.50;99.90;;;;;;4065205;29;20101;-64
2022/08/10 04:11:20;;;;;;;2.80;1.90;;;19.40;99.90;;;;;;4064944;29;20044;-64
2022/08/10 04:13:21;;;;;;;4.82;1.80;;;19.40;99.90;;;;;;4064593;29;20040;-64
2022/08/10 04:15:23;;;;;;;2.10;1.70;;;19.40;99.90;;;;;;4060949;29;20039;-64
2022/08/10 04:17:25;;;;;;;4.73;1.80;;;19.30;99.90;;;;;;4074224;29;20032;-64
2022/08/10 04:19:28;;;;;;;6.53;1.77;;;19.30;99.90;;;;;;4066351;29;20028;-64
2022/08/10 04:21:37;;;;;;;4.35;1.80;;;19.10;99.90;;;;;;4064176;29;20050;-64
2022/08/10 04:23:43;;;;;;;1.85;1.73;;;19.20;99.90;;;;;;4064653;29;20499;-64
2022/08/10 04:25:43;;;;;;;4.43;2.10;;;19.10;99.90;;;;;;4065296;29;20032;-64
2022/08/10 04:27:45;;;;;;;2.50;1.70;;;19.00;99.90;;;;;;4065247;29;20496;-64
2022/08/10 04:29:47;;;;;;;1.95;1.65;;;19.00;99.90;;;;;;4064414;29;20040;-64
2022/08/10 04:31:49;;;;;;;2.90;2.28;;;19.00;99.90;;;;;;4064510;29;20040;-64
2022/08/10 04:33:51;;;;;;;3.28;2.17;;;19.00;99.90;;;;;;4067410;29;20036;-64
2022/08/10 04:35:52;;;;;;;2.10;1.83;;;19.00;99.90;;;;;;4064266;29;20075;-64
2022/08/10 04:37:55;;;;;;;2.63;1.75;;;19.00;99.90;;;;;;4065211;29;20096;-64
2022/08/10 04:39:56;;;;;;;1.95;1.75;;;18.90;99.90;;;;;;4065041;29;20038;-63
2022/08/10 04:41:57;;;;;;;1.80;1.70;;;19.00;99.90;;;;;;4064321;29;20036;-65
2022/08/10 04:43:58;;;;;;;2.65;1.73;;;19.00;99.90;;;;;;4066709;29;20095;-65
2022/08/10 04:45:59;;;;;;;2.03;1.63;;;19.00;99.90;;;;;;4065025;29;20033;-65
2022/08/10 04:47:59;;;;;;;2.50;2.25;;;19.10;99.90;;;;;;4064898;29;20029;-65
2022/08/10 04:50:00;;;;;;;3.45;1.90;;;19.10;99.90;;;;;;4064499;29;20052;-65
2022/08/10 04:52:01;;;;;;;2.25;1.90;;;19.10;99.90;;;;;;4063645;29;20072;-64
2022/08/10 04:54:01;;;;;;;2.30;1.85;;;19.20;99.90;;;;;;4069879;29;20093;-64
2022/08/10 04:56:02;;;;;;;2.85;1.75;;;19.20;99.90;;;;;;4066424;29;20499;-64
2022/08/10 04:58:03;;;;;;;4.80;2.05;;;19.20;99.90;;;;;;4065921;29;20484;-64
2022/08/10 05:00:04;;;;;;;2.53;1.63;;;19.30;99.90;;;;;;4065270;29;20048;-64
2022/08/10 05:02:05;;;;;;;2.45;1.77;;;19.30;99.90;;;;;;4063500;29;20037;-64
2022/08/10 05:04:06;;;;;;;2.00;1.88;;;19.30;99.90;;;;;;4064264;29;20040;-64
2022/08/10 05:06:07;;;;;;;1.98;1.80;;;19.30;99.90;;;;;;4064148;29;20136;-64
2022/08/10 05:08:07;;;;;;;2.05;1.73;;;19.30;99.90;;;;;;4073833;29;20068;-64
2022/08/10 05:10:08;;;;;;;2.72;1.90;;;19.30;99.90;;;;;;4062236;29;20036;-64
2022/08/10 05:12:09;;;;;;;1.70;1.60;;;19.40;99.90;;;;;;4055494;29;20496;-64
2022/08/10 05:14:09;;;;;;;2.17;1.77;;;19.40;99.90;;;;;;4051691;29;20032;-64
2022/08/10 05:16:10;;;;;;;2.58;1.63;;;19.50;99.90;;;;;;4050090;29;20393;-64
2022/08/10 05:18:11;;;;;;;3.55;2.08;;;19.50;99.90;;;;;;4058558;29;20115;-65
2022/08/10 05:20:12;;;;;;;1.90;1.67;;;19.50;99.90;;;;;;4069179;29;20502;-64
2022/08/10 05:22:12;;;;;;;3.78;2.13;;;19.50;99.90;;;;;;4066735;29;20024;-64
2022/08/10 05:24:13;;;;;;;3.00;2.15;;;19.40;99.90;;;;;;4071392;29;20040;-64
2022/08/10 05:26:14;;;;;;;3.45;1.90;;;19.50;99.90;;;;;;4068652;29;20994;-64
2022/08/10 05:28:14;;;;;;;2.75;1.90;;;19.40;99.90;;;;;;4069583;29;20042;-64
2022/08/10 05:30:18;;;;;;;3.33;2.17;;;19.30;99.90;;;;;;4069293;29;20038;-64
2022/08/10 05:32:20;;;;;;;4.97;2.20;;;19.30;99.90;;;;;;4066215;29;20063;-64
2022/08/10 05:34:25;;;;;;;2.90;2.20;;;19.30;99.90;;;;;;4065684;29;20035;-64
2022/08/10 05:36:27;;;;;;;1.98;1.50;;;19.30;99.90;;;;;;4068231;29;20027;-64
2022/08/10 05:38:28;;;;;;;3.88;2.17;;;19.40;99.90;;;;;;4064528;29;20131;-64
2022/08/10 05:40:29;;;;;;;3.00;2.27;;;19.40;99.90;;;;;;4063722;29;20077;-65
2022/08/10 05:42:30;;;;;;;4.82;2.20;;;19.50;99.90;;;;;;4067469;29;20107;-64
2022/08/10 05:44:32;;;;;;;1.88;1.73;;;19.50;99.90;;;;;;4054191;29;20484;-65
2022/08/10 05:46:33;;;;;;;2.63;1.80;;;19.50;99.90;;;;;;4062754;29;20028;-64
2022/08/10 05:48:38;;;;;;;3.22;2.00;;;19.50;99.90;;;;;;4064530;29;20107;-64
2022/08/10 05:50:39;;;;;;;2.15;1.90;;;19.60;99.90;;;;;;4046725;29;20119;-64
2022/08/10 05:52:39;;;;;;;3.22;2.00;;;19.60;99.90;;;;;;4064318;29;20059;-65
2022/08/10 05:54:40;;;;;;;2.63;2.28;;;19.70;99.90;;;;;;4064355;29;20048;-65
2022/08/10 05:56:44;;;;;;;5.32;2.45;;;19.70;99.90;;;;;;4063185;29;20036;-64
2022/08/10 05:58:45;;;;;;;5.45;2.47;;;19.70;99.90;;;;;;4072458;29;20483;-64
2022/08/10 06:00:53;;;;;;;4.78;2.42;;;19.70;99.90;;;;;;4065597;29;20040;-64
2022/08/10 06:02:59;;;;;;;2.13;1.92;;;19.80;99.90;;;;;;4062307;29;20044;-64
2022/08/10 06:05:26;;;;;;;2.78;2.10;;;19.80;99.90;;;;;;4063670;29;20115;-68
2022/08/10 06:07:28;;;;;;;2.53;2.05;;;19.80;99.90;;;;;;4062310;29;20135;-67
2022/08/10 06:09:30;;;;;;;3.25;2.40;;;19.90;99.90;;;;;;4062428;29;20044;-67
2022/08/10 06:11:32;;;;;;;3.55;2.28;;;19.90;99.90;;;;;;4059700;29;20044;-67
2022/08/10 06:16:01;;;;;;;2.15;1.80;;;20.00;99.90;;;;;;4059989;29;20044;-67
2022/08/10 06:18:03;;;;;;;3.03;2.20;;;20.10;99.90;;;;;;4064354;29;20044;-67
2022/08/10 06:20:04;;;;;;;2.20;1.98;;;20.20;99.90;;;;;;4064115;29;20395;-68
2022/08/10 06:22:05;;;;;;;3.03;2.00;;;20.20;99.90;;;;;;4065547;29;20031;-67
2022/08/10 06:24:09;;;;;;;2.80;2.13;;;20.20;99.90;;;;;;4065496;29;20130;-67
2022/08/10 06:26:10;;;;;;;4.18;2.47;;;20.30;99.90;;;;;;4061544;29;20040;-67
2022/08/10 06:28:15;;;;;;;2.88;2.17;;;20.40;99.90;;;;;;4063690;29;20451;-67
2022/08/10 06:30:16;;;;;;;2.85;2.25;;;20.40;99.90;;;;;;4065024;29;20100;-68
2022/08/10 06:32:18;;;;;;;3.50;2.45;;;20.50;99.90;;;;;;4062917;29;20116;-67
2022/08/10 06:34:24;;;;;;;4.13;2.38;;;20.60;99.90;;;;;;4046794;29;20044;-67
2022/08/10 06:36:27;;;;;;;4.00;2.13;;;20.80;99.90;;;;;;4060287;29;20094;-67
2022/08/10 06:38:32;;;;;;;3.72;2.17;;;21.10;99.90;;;;;;4064185;29;20047;-67
2022/08/10 06:40:36;;;;;;;4.90;2.40;;;21.50;99.90;;;;;;4062660;29;20032;-67
2022/08/10 06:42:41;;;;;;;4.75;2.75;;;22.00;99.90;;;;;;4060747;29;20143;-68
2022/08/10 06:44:57;;;;;;;4.80;2.40;;;22.30;99.90;;;;;;4059029;29;20048;-68
2022/08/10 06:47:00;;;;;;;5.15;2.55;;;22.70;99.90;;;;;;4061931;29;20032;-68
2022/08/10 06:49:03;;;;;;;3.40;2.17;;;23.10;99.90;;;;;;4063796;29;20454;-68
2022/08/10 06:51:16;;;;;;;4.43;2.10;;;23.50;99.30;;;;;;4060511;29;20471;-67
2022/08/10 06:53:22;;;;;;;4.10;2.28;;;24.00;96.10;;;;;;4066469;29;20048;-69
2022/08/10 06:55:24;;;;;;;5.38;2.53;;;24.30;94.90;;;;;;4062332;29;20055;-67
2022/08/10 06:57:27;;;;;;;7.40;3.67;;;24.50;95.00;;;;;;4060929;29;20352;-68
2022/08/10 06:59:43;;;;;;;3.85;2.50;;;24.90;94.60;;;;;;4064108;29;20106;-68
2022/08/10 07:01:47;;;;;;;3.92;2.10;;;25.20;94.50;;;;;;4061582;29;20395;-68
2022/08/10 07:04:17;;;;;;;6.03;2.30;;;25.50;92.10;;;;;;4060862;29;20036;-69
2022/08/10 07:06:20;;;;;;;4.55;2.40;;;25.70;92.00;;;;;;4060357;29;20028;-69
2022/08/10 07:08:22;;;;;;;4.10;2.30;;;25.60;90.60;;;;;;4063789;29;20028;-68
2022/08/10 07:10:24;;;;;;;;;;;25.50;91.20;;;;;;4063577;29;20036;-68
2022/08/10 07:12:26;;;;;;;3.75;2.38;;;25.60;90.70;;;;;;4064188;29;19926;-68
2022/08/10 07:14:28;;;;;;;2.50;1.70;;;25.50;90.70;;;;;;4066438;29;20115;-68
2022/08/10 07:16:33;;;;;;;4.82;2.50;;;25.50;90.70;;;;;;4068811;29;20043;-68
2022/08/10 07:18:35;;;;;;;4.63;2.03;;;25.50;90.60;;;;;;4066840;29;20040;-68
2022/08/10 07:20:36;;;;;;;4.32;2.10;;;25.60;90.30;;;;;;4066288;29;20051;-68
2022/08/10 07:22:39;;;;;;;4.88;1.90;;;25.60;90.50;;;;;;4065027;29;20477;-68
2022/08/10 07:24:42;;;;;;;4.32;1.80;;;25.70;90.20;;;;;;4067000;29;20489;-68
2022/08/10 07:26:49;;;;;;;4.43;1.60;;;25.90;91.40;;;;;;4064756;29;20450;-69
2022/08/10 07:28:51;;;;;;;4.70;1.90;;;26.00;90.50;;;;;;4063233;29;21070;-68
2022/08/10 07:30:52;;;;;;;2.85;1.73;;;26.10;89.50;;;;;;4062678;29;20398;-69
2022/08/10 07:32:54;;;;;;;8.88;2.13;;;26.20;88.70;;;;;;4062437;29;20067;-69
2022/08/10 07:34:56;;;;;;;2.95;2.03;;;26.10;88.00;;;;;;4062731;29;20128;-69
2022/08/10 07:37:06;;;;;;;5.17;2.20;;;26.10;87.00;;;;;;4062834;29;20048;-68
2022/08/10 07:39:08;;;;;;;2.63;1.90;;;26.00;87.90;;;;;;4063712;29;20428;-69
2022/08/10 07:41:09;;;;;;;3.50;1.98;;;26.00;87.90;;;;;;4062448;29;20143;-68
2022/08/10 07:43:12;;;;;;;6.68;2.55;;;26.00;87.70;;;;;;4062522;29;20064;-68
2022/08/10 07:45:13;;;;;;;5.20;2.58;;;26.10;87.10;;;;;;4061611;29;20431;-68
2022/08/10 07:47:18;;;;;;;4.22;1.90;;;25.90;87.40;;;;;;4063625;29;20407;-68
2022/08/10 07:49:25;;;;;;;3.30;1.90;;;26.10;89.40;;;;;;4063136;29;20048;-68
2022/08/10 07:51:26;;;;;;;2.78;1.80;;;26.20;90.10;;;;;;4062387;29;20147;-68
2022/08/10 07:53:32;;;;;;;3.77;1.70;;;26.30;90.50;;;;;;4062003;29;20051;-68
2022/08/10 07:55:34;;;;;;;3.60;1.90;;;26.50;86.10;;;;;;4061931;29;20052;-68
2022/08/10 07:57:37;;;;;;;4.22;1.95;;;26.40;86.00;;;;;;4063491;29;20055;-69
2022/08/10 07:59:40;;;;;;;;;;;26.60;86.70;;;;;;4063853;29;20044;-68
2022/08/10 08:01:49;;;;;;;2.97;1.85;;;26.70;86.70;;;;;;4058583;29;19917;-68
2022/08/10 08:03:51;;;;;;;2.90;1.70;;;26.60;85.00;;;;;;4062148;29;20111;-68
2022/08/10 08:05:52;;;;;;;4.75;2.25;;;26.70;85.70;;;;;;4060778;29;20088;-68
2022/08/10 08:07:55;;;;;;;5.72;2.20;;;26.50;83.00;;;;;;4061158;29;20046;-68
2022/08/10 08:09:57;;;;;;;5.15;1.77;;;26.60;85.80;;;;;;4062765;29;20384;-68
2022/08/10 08:11:59;;;;;;;5.05;2.30;;;26.70;85.70;;;;;;4063088;29;20044;-68
2022/08/10 08:14:02;;;;;;;4.88;1.90;;;26.80;84.70;;;;;;4062587;29;20044;-68
2022/08/10 08:16:05;;;;;;;8.23;2.45;;;26.80;83.20;;;;;;4063596;29;20040;-69
2022/08/10 08:18:07;;;;;;;5.55;2.05;;;26.80;81.90;;;;;;4066159;29;20095;-68
2022/08/10 08:20:11;;;;;;;4.82;2.28;;;26.80;82.40;;;;;;4064468;29;20518;-68
2022/08/10 08:22:13;;;;;;;3.78;1.90;;;26.80;80.60;;;;;;4059810;29;20024;-68
2022/08/10 08:24:18;;;;;;;4.63;2.28;;;26.90;82.30;;;;;;4066970;29;20123;-68
2022/08/10 08:26:21;;;;;;;6.22;2.40;;;26.90;81.20;;;;;;4064562;29;20846;-68
2022/08/10 08:28:23;;;;;;;6.22;2.80;;;26.90;81.50;;;;;;4064750;29;20115;-68
2022/08/10 08:30:24;;;;;;;6.47;2.53;;;26.80;79.90;;;;;;4066628;29;20487;-68
2022/08/10 08:32:27;;;;;;;5.95;2.40;;;26.90;80.50;;;;;;4062290;29;20448;-68
2022/08/10 08:34:31;;;;;;;4.18;2.05;;;27.00;81.90;;;;;;4064313;29;20044;-67
2022/08/10 08:36:33;;;;;;;4.45;2.20;;;27.10;81.00;;;;;;4060163;29;20086;-68
2022/08/10 08:38:35;;;;;;;3.92;2.10;;;27.20;80.50;;;;;;4062974;29;20032;-67
2022/08/10 08:40:37;;;;;;;4.72;2.33;;;27.20;80.30;;;;;;4062330;29;20487;-67
2022/08/10 08:43:03;;;;;;;4.82;2.20;;;27.30;79.50;;;;;;4062069;29;20099;-67
2022/08/10 08:45:19;;;;;;;4.78;2.20;;;27.40;83.70;;;;;;4063136;29;20087;-68
2022/08/10 08:47:25;;;;;;;3.42;2.28;;;27.50;78.60;;;;;;4062637;29;20047;-67
2022/08/10 08:49:34;;;;;;;3.58;1.95;;;27.60;78.40;;;;;;4064385;29;20054;-67
2022/08/10 08:52:00;;;;;;;3.47;1.88;;;27.70;78.40;;;;;;4062320;29;20479;-67
2022/08/10 08:54:22;;;;;;;3.97;1.88;;;27.90;80.80;;;;;;4064060;29;20048;-67
2022/08/10 08:56:39;;;;;;;4.63;2.13;;;28.00;77.90;;;;;;4047388;29;20779;-67
2022/08/10 08:58:58;;;;;;;4.90;2.30;;;28.00;76.70;;;;;;4048806;29;20392;-67
2022/08/10 09:01:17;;;;;;;4.45;2.50;;;28.10;75.40;;;;;;4046453;29;20045;-67
2022/08/10 09:03:21;;;;;;;3.88;2.15;;;28.20;75.70;;;;;;4051637;29;20037;-67
2022/08/10 09:05:30;;;;;;;4.28;2.40;;;28.40;77.80;;;;;;4045988;29;20037;-67
2022/08/10 09:07:42;;;;;;;4.88;2.92;;;28.40;76.90;;;;;;4046437;29;20111;-69
2022/08/10 09:09:57;;;;;;;4.80;2.70;;;28.60;77.20;;;;;;4048192;29;20484;-67
2022/08/10 09:12:04;;;;;;;5.45;2.55;;;28.70;78.50;;;;;;4045124;29;20093;-67
2022/08/10 09:14:22;;;;;;;5.93;3.00;;;28.80;75.10;;;;;;4047223;29;20043;-67
2022/08/10 09:16:40;;;;;;;6.47;3.13;;;28.80;71.40;;;;;;4044258;29;20049;-67
2022/08/10 09:19:06;;;;;;;3.70;2.58;;;28.90;72.30;;;;;;4052560;29;20051;-67
2022/08/10 09:21:28;;;;;;;4.50;2.22;;;28.90;73.30;;;;;;4044304;29;20037;-67
2022/08/10 09:23:49;;;;;;;5.22;2.38;;;29.10;75.60;;;;;;4063435;29;20060;-67
2022/08/10 09:25:58;;;;;;;2.40;1.88;;;29.20;73.70;;;;;;4063444;29;20028;-67
2022/08/10 09:28:03;;;;;;;2.60;1.70;;;29.30;73.20;;;;;;4064399;29;20036;-67
2022/08/10 09:30:07;;;;;;;3.42;1.90;;;29.40;70.40;;;;;;4064312;29;20484;-68
2022/08/10 09:32:09;;;;;;;4.85;2.03;;;29.40;74.20;;;;;;4063019;29;20064;-67
2022/08/10 09:34:25;;;;;;;6.20;2.45;;;29.50;69.90;;;;;;4064274;29;20028;-67
2022/08/10 09:36:52;;;;;;;7.47;2.45;;;29.30;67.90;;;;;;4062661;29;20036;-67
2022/08/10 09:39:04;;;;;;;6.32;2.13;;;29.20;68.80;;;;;;4049287;29;20044;-67
2022/08/10 09:41:37;;;;;;;4.47;2.20;;;29.20;69.80;;;;;;4049711;29;20037;-68
2022/08/10 09:44:00;;;;;;;3.72;2.03;;;29.30;68.30;;;;;;4052901;29;20181;-67
2022/08/10 09:46:10;;;;;;;4.00;2.40;;;29.30;67.60;;;;;;4047279;29;20040;-67
2022/08/10 09:48:36;;;;;;;4.00;2.22;;;29.20;68.20;;;;;;4048895;29;20115;-67
2022/08/10 09:50:43;;;;;;;7.45;2.30;;;29.20;68.40;;;;;;4049042;29;20400;-67
2022/08/10 09:53:01;;;;;;;3.80;2.00;;;29.20;69.10;;;;;;4045909;29;20508;-67
2022/08/10 09:55:24;;;;;;;3.08;2.10;;;29.30;66.80;;;;;;4057882;29;20040;-67
2022/08/10 09:57:33;;;;;;;8.00;3.20;;;29.40;65.90;;;;;;4065497;29;20467;-67
2022/08/10 09:59:36;;;;;;;4.97;2.70;;;29.50;66.50;;;;;;4065626;29;20060;-67
2022/08/10 10:01:45;;;;;;;6.10;2.22;;;29.50;65.10;;;;;;4062553;29;20394;-67
2022/08/10 10:04:03;;;;;;;9.07;3.38;;;29.50;63.80;;;;;;4055388;29;20373;-67
2022/08/10 10:06:12;;;;;;;4.53;2.63;;;29.60;66.00;;;;;;4050751;29;20149;-68
2022/08/10 10:08:27;;;;;;;4.03;2.17;;;29.60;65.80;;;;;;4049749;29;20036;-67
2022/08/10 10:10:43;;;;;;;4.38;2.05;;;29.70;65.00;;;;;;4078064;29;20039;-67
2022/08/10 10:12:57;;;;;;;5.50;2.30;;;29.60;64.00;;;;;;4062403;29;20036;-67
2022/08/10 10:15:30;;;;;;;4.60;2.03;;;29.60;64.10;;;;;;4053948;29;20028;-67
2022/08/10 10:17:42;;;;;;;3.08;2.08;;;29.70;61.60;;;;;;4048960;29;20068;-67
2022/08/10 10:20:00;;;;;;;3.78;2.20;;;29.80;62.90;;;;;;4065689;29;20024;-67
2022/08/10 10:22:25;;;;;;;3.47;2.05;;;29.90;59.90;;;;;;4063407;29;20047;-67
2022/08/10 10:24:46;;;;;;;5.43;2.78;;;29.80;57.80;;;;;;4062490;29;20032;-67
2022/08/10 10:27:17;;;;;;;3.30;2.00;;;29.80;58.30;;;;;;4062478;29;20487;-67
2022/08/10 10:29:46;;;;;;;3.53;2.45;;;29.90;57.80;;;;;;4058362;29;20479;-68
2022/08/10 10:32:05;;;;;;;2.58;2.10;;;29.70;58.20;;;;;;4045098;29;20032;-67
2022/08/10 10:34:36;;;;;;;4.32;2.05;;;29.70;59.50;;;;;;4062006;29;20044;-67
2022/08/10 10:36:40;;;;;;;4.25;2.10;;;29.70;59.60;;;;;;4061455;29;20510;-66
2022/08/10 10:38:42;;;;;;;2.50;1.98;;;29.80;59.50;;;;;;4063961;29;20492;-67
2022/08/10 10:41:02;;;;;;;3.35;2.00;;;29.90;58.90;;;;;;4064853;29;20510;-67
2022/08/10 10:43:42;;;;;;;4.88;2.38;;;29.90;58.60;;;;;;4063151;29;20535;-67
2022/08/10 10:46:05;;;;;;;4.35;2.30;;;29.90;59.70;;;;;;4061928;29;20039;-67
2022/08/10 10:48:23;;;;;;;3.90;2.22;;;29.90;58.10;;;;;;4067509;29;20043;-68
2022/08/10 10:51:00;;;;;;;3.95;2.17;;;29.90;57.80;;;;;;4067271;29;20503;-67
2022/08/10 10:53:27;;;;;;;3.30;1.83;;;30.00;58.10;;;;;;4066249;29;20051;-67
2022/08/10 10:55:48;;;;;;;2.80;1.70;;;30.10;58.60;;;;;;4061298;29;20032;-67
2022/08/10 10:58:27;;;;;;;2.63;1.65;;;30.20;59.70;;;;;;4067590;29;20038;-67
2022/08/10 11:00:54;;;;;;;8.88;2.35;;;30.20;58.10;;;;;;4065443;29;20099;-68
2022/08/10 11:03:14;;;;;;;3.40;2.28;;;30.10;57.10;;;;;;4046210;29;20214;-67
2022/08/10 11:05:23;;;;;;;2.95;1.92;;;30.10;57.20;;;;;;4055367;29;20059;-67